createdAt,value
2018-11-03T18:06:11.392Z,68.20
2018-11-03T18:08:39.095Z,70.00
2018-11-03T18:11:16.567Z,70.10
2018-11-03T18:13:44.826Z,70.70
2018-11-03T20:17:51.047Z,77.50
2018-11-03T20:20:18.898Z,78.30
2018-11-03T20:34:29.574Z,75.50
2018-11-03T20:36:57.513Z,75.90
2018-11-03T20:39:25.310Z,76.30
2018-11-03T20:41:53.137Z,76.40
2018-11-03T20:44:20.934Z,76.60
2018-11-03T20:46:48.699Z,76.80
2018-11-03T20:49:16.362Z,77.00
2018-11-03T20:51:44.412Z,77.30
2018-11-03T20:54:12.591Z,78.20
2018-11-03T20:56:40.265Z,77.70
2018-11-03T20:59:08.463Z,77.70
2018-11-03T21:01:36.151Z,78.10
2018-11-03T21:04:04.261Z,78.10
2018-11-03T21:06:32.060Z,78.20
2018-11-03T21:08:59.789Z,78.70
2018-11-03T21:11:28.170Z,78.50
2018-11-03T21:13:56.138Z,78.40
2018-11-03T21:16:23.968Z,78.30
2018-11-03T21:18:52.221Z,78.60
2018-11-03T21:21:20.151Z,78.60
2018-11-03T21:23:48.289Z,78.40
2018-11-03T21:26:15.907Z,78.30
2018-11-03T21:28:43.590Z,78.70
2018-11-03T21:31:11.430Z,78.50
2018-11-03T21:33:39.386Z,79.50
2018-11-03T21:36:07.270Z,79.60
2018-11-03T21:38:35.489Z,79.40
2018-11-03T21:41:03.151Z,79.10
2018-11-03T21:43:30.871Z,79.10
2018-11-03T21:45:59.046Z,79.50
2018-11-03T21:48:26.794Z,78.50
2018-11-03T21:50:54.867Z,78.50
2018-11-03T21:53:25.455Z,78.90
2018-11-03T21:55:53.750Z,79.20
2018-11-03T21:58:23.033Z,79.60
2018-11-03T22:00:50.791Z,79.70
2018-11-03T22:03:18.704Z,79.60
2018-11-03T22:05:46.627Z,79.90
2018-11-03T22:08:14.442Z,79.90
2018-11-03T22:10:42.135Z,79.30
2018-11-03T23:07:26.443Z,99.90
2018-11-03T23:09:54.938Z,71.70
2018-11-03T23:12:23.542Z,63.40
2018-11-03T23:14:52.256Z,59.70
2018-11-03T23:17:20.902Z,58.30
2018-11-03T23:19:49.477Z,57.50
2018-11-03T23:22:17.995Z,57.50
2018-11-03T23:24:46.538Z,57.10
2018-11-03T23:27:14.943Z,57.10
2018-11-03T23:29:43.469Z,57.20
2018-11-03T23:32:11.991Z,57.20
2018-11-03T23:34:40.762Z,57.70
2018-11-03T23:37:09.961Z,57.00
2018-11-03T23:39:38.464Z,57.10
2018-11-03T23:42:07.433Z,57.10
2018-11-03T23:44:35.843Z,57.00
2018-11-03T23:47:04.735Z,57.00
2018-11-03T23:49:33.211Z,57.00
2018-11-03T23:52:01.623Z,56.50
